KCSG

Columbus Airport

Columbus, Georgia, USA
KCSG 192320Z 2000/2024 03004KT P6SM FEW060 FM200200 00000KT P6SM SKC FM201700 11007KT P6SM SCT060
Issued Valid From Valid To
Sep-19 @ 23:20 UTC
(an hour ago)
Sep-20 @ 00:00 UTC
(46 minutes ago)
Sep-21 @ 00:00 UTC
(in 23 hours)
Sep-20 @ 00:00 to Sep-20 @ 02:00
KCSG 192320Z 2000/2024 03004KT P6SM FEW060
Wind Visibility Clouds
30° at 4 knots Greater than 6 miles
  • Few at 6,000' AGL
From Sep-20 @ 02:00 to Sep-20 @ 17:00
FM200200 00000KT P6SM SKC
Visibility Clouds
Greater than 6 miles
  • Clear skies
From Sep-20 @ 17:00 to Sep-21 @ 00:00
FM201700 11007KT P6SM SCT060
Wind Visibility Clouds
110° at 7 knots Greater than 6 miles
  • Scattered at 6,000' AGL
KCSG 192320Z 2000/2024 03004KT P6SM FEW060 FM200200 00000KT P6SM SKC FM201700 11007KT P6SM SCT060
Issued Sep-19 @ 23:20 UTC
(an hour ago)
Valid From Sep-20 @ 00:00 UTC
(46 minutes ago)
Valid To Sep-21 @ 00:00 UTC
(in 23 hours)
Sep-20 @ 00:00 - Sep-20 @ 02:00
Wind Visibility
30° at 4 knots Greater than 6 miles
Clouds
  • Few at 6,000' AGL
From Sep-20 @ 02:00 - Sep-20 @ 17:00
Clouds
  • Clear skies
From Sep-20 @ 17:00 - Sep-21 @ 00:00
Wind Visibility
110° at 7 knots Greater than 6 miles
Clouds
  • Scattered at 6,000' AGL